sensor_id;sensor_type;location;lat;lon;timestamp;P1;durP1;ratioP1;P2;durP2;ratioP2
18576;SDS011;9418;52.694;13.294;2023-04-15T00:01:33;19.97;;;17.83;;
18576;SDS011;9418;52.694;13.294;2023-04-15T00:04:01;18.40;;;16.60;;
18576;SDS011;9418;52.694;13.294;2023-04-15T00:06:29;20.70;;;18.70;;
18576;SDS011;9418;52.694;13.294;2023-04-15T00:08:56;21.10;;;18.97;;
18576;SDS011;9418;52.694;13.294;2023-04-15T00:11:23;20.90;;;18.73;;
18576;SDS011;9418;52.694;13.294;2023-04-15T00:13:49;21.70;;;19.50;;
18576;SDS011;9418;52.694;13.294;2023-04-15T00:16:16;22.10;;;19.80;;
18576;SDS011;9418;52.694;13.294;2023-04-15T00:18:43;22.10;;;19.80;;
18576;SDS011;9418;52.694;13.294;2023-04-15T00:21:09;22.67;;;20.37;;
18576;SDS011;9418;52.694;13.294;2023-04-15T00:23:37;21.67;;;19.40;;
18576;SDS011;9418;52.694;13.294;2023-04-15T00:26:04;23.00;;;20.50;;
18576;SDS011;9418;52.694;13.294;2023-04-15T00:28:31;22.53;;;20.13;;
18576;SDS011;9418;52.694;13.294;2023-04-15T00:30:58;24.17;;;21.57;;
18576;SDS011;9418;52.694;13.294;2023-04-15T00:33:24;23.33;;;20.83;;
18576;SDS011;9418;52.694;13.294;2023-04-15T00:35:51;24.10;;;21.30;;
18576;SDS011;9418;52.694;13.294;2023-04-15T00:38:17;31.13;;;22.70;;
18576;SDS011;9418;52.694;13.294;2023-04-15T00:40:45;25.23;;;22.17;;
18576;SDS011;9418;52.694;13.294;2023-04-15T00:43:12;25.47;;;22.50;;
18576;SDS011;9418;52.694;13.294;2023-04-15T00:45:40;24.87;;;21.60;;
18576;SDS011;9418;52.694;13.294;2023-04-15T00:48:07;25.27;;;22.57;;
18576;SDS011;9418;52.694;13.294;2023-04-15T00:50:34;25.13;;;22.43;;
18576;SDS011;9418;52.694;13.294;2023-04-15T00:53:00;25.13;;;22.53;;
18576;SDS011;9418;52.694;13.294;2023-04-15T00:55:27;30.03;;;24.37;;
18576;SDS011;9418;52.694;13.294;2023-04-15T01:00:24;30.70;;;25.83;;
18576;SDS011;9418;52.694;13.294;2023-04-15T01:02:51;28.10;;;24.30;;
18576;SDS011;9418;52.694;13.294;2023-04-15T01:05:17;26.33;;;23.53;;
18576;SDS011;9418;52.694;13.294;2023-04-15T01:07:45;26.90;;;24.00;;
18576;SDS011;9418;52.694;13.294;2023-04-15T01:10:12;29.17;;;25.07;;
18576;SDS011;9418;52.694;13.294;2023-04-15T01:12:39;28.23;;;25.13;;
18576;SDS011;9418;52.694;13.294;2023-04-15T01:15:07;30.10;;;23.83;;
18576;SDS011;9418;52.694;13.294;2023-04-15T01:17:36;28.60;;;25.27;;
18576;SDS011;9418;52.694;13.294;2023-04-15T01:20:04;28.80;;;25.70;;
18576;SDS011;9418;52.694;13.294;2023-04-15T01:22:34;32.77;;;26.20;;
18576;SDS011;9418;52.694;13.294;2023-04-15T01:25:03;30.97;;;26.00;;
18576;SDS011;9418;52.694;13.294;2023-04-15T01:27:33;32.30;;;27.37;;
18576;SDS011;9418;52.694;13.294;2023-04-15T01:30:00;32.80;;;26.23;;
18576;SDS011;9418;52.694;13.294;2023-04-15T01:32:29;31.23;;;26.50;;
18576;SDS011;9418;52.694;13.294;2023-04-15T01:34:55;32.60;;;27.90;;
18576;SDS011;9418;52.694;13.294;2023-04-15T01:37:22;30.93;;;25.13;;
18576;SDS011;9418;52.694;13.294;2023-04-15T01:39:50;30.27;;;26.90;;
18576;SDS011;9418;52.694;13.294;2023-04-15T01:42:16;32.50;;;26.03;;
18576;SDS011;9418;52.694;13.294;2023-04-15T01:44:44;31.90;;;26.80;;
18576;SDS011;9418;52.694;13.294;2023-04-15T01:47:11;30.13;;;25.97;;
18576;SDS011;9418;52.694;13.294;2023-04-15T01:49:38;36.70;;;26.10;;
18576;SDS011;9418;52.694;13.294;2023-04-15T01:52:05;34.10;;;27.73;;
18576;SDS011;9418;52.694;13.294;2023-04-15T01:54:31;31.90;;;26.40;;
18576;SDS011;9418;52.694;13.294;2023-04-15T01:56:58;32.87;;;25.67;;
18576;SDS011;9418;52.694;13.294;2023-04-15T01:59:26;41.70;;;27.83;;
18576;SDS011;9418;52.694;13.294;2023-04-15T02:01:54;30.73;;;27.40;;
18576;SDS011;9418;52.694;13.294;2023-04-15T02:04:21;36.20;;;26.50;;
18576;SDS011;9418;52.694;13.294;2023-04-15T02:06:48;33.20;;;28.40;;
18576;SDS011;9418;52.694;13.294;2023-04-15T02:09:14;30.03;;;25.53;;
18576;SDS011;9418;52.694;13.294;2023-04-15T02:11:41;33.00;;;26.37;;
18576;SDS011;9418;52.694;13.294;2023-04-15T02:14:07;31.37;;;27.30;;
18576;SDS011;9418;52.694;13.294;2023-04-15T02:16:34;32.40;;;25.20;;
18576;SDS011;9418;52.694;13.294;2023-04-15T02:19:02;28.70;;;25.27;;
18576;SDS011;9418;52.694;13.294;2023-04-15T02:21:28;40.00;;;26.37;;
18576;SDS011;9418;52.694;13.294;2023-04-15T02:23:55;30.90;;;25.50;;
18576;SDS011;9418;52.694;13.294;2023-04-15T02:26:22;34.77;;;27.63;;
18576;SDS011;9418;52.694;13.294;2023-04-15T02:28:49;29.40;;;25.60;;
18576;SDS011;9418;52.694;13.294;2023-04-15T02:31:16;35.70;;;27.10;;
18576;SDS011;9418;52.694;13.294;2023-04-15T02:33:43;34.13;;;28.20;;
18576;SDS011;9418;52.694;13.294;2023-04-15T02:36:11;30.97;;;26.47;;
18576;SDS011;9418;52.694;13.294;2023-04-15T02:38:38;28.93;;;25.90;;
18576;SDS011;9418;52.694;13.294;2023-04-15T02:41:07;31.10;;;26.00;;
18576;SDS011;9418;52.694;13.294;2023-04-15T02:43:34;38.17;;;26.23;;
18576;SDS011;9418;52.694;13.294;2023-04-15T02:46:00;31.47;;;26.40;;
18576;SDS011;9418;52.694;13.294;2023-04-15T02:48:27;32.57;;;27.00;;
18576;SDS011;9418;52.694;13.294;2023-04-15T02:53:40;32.33;;;25.47;;
18576;SDS011;9418;52.694;13.294;2023-04-15T02:56:07;29.20;;;24.37;;
18576;SDS011;9418;52.694;13.294;2023-04-15T02:58:34;29.03;;;25.47;;
18576;SDS011;9418;52.694;13.294;2023-04-15T03:01:01;29.17;;;24.40;;
18576;SDS011;9418;52.694;13.294;2023-04-15T03:03:27;32.27;;;24.80;;
18576;SDS011;9418;52.694;13.294;2023-04-15T03:05:54;31.90;;;24.20;;
18576;SDS011;9418;52.694;13.294;2023-04-15T03:08:22;32.17;;;24.47;;
18576;SDS011;9418;52.694;13.294;2023-04-15T03:10:49;32.67;;;25.17;;
18576;SDS011;9418;52.694;13.294;2023-04-15T03:13:17;32.43;;;25.33;;
18576;SDS011;9418;52.694;13.294;2023-04-15T03:15:45;30.53;;;25.37;;
18576;SDS011;9418;52.694;13.294;2023-04-15T03:18:11;30.27;;;25.27;;
18576;SDS011;9418;52.694;13.294;2023-04-15T03:20:38;31.87;;;24.40;;
18576;SDS011;9418;52.694;13.294;2023-04-15T03:23:05;27.97;;;24.50;;
18576;SDS011;9418;52.694;13.294;2023-04-15T03:25:33;32.37;;;24.90;;
18576;SDS011;9418;52.694;13.294;2023-04-15T03:28:01;27.70;;;23.53;;
18576;SDS011;9418;52.694;13.294;2023-04-15T03:30:28;29.70;;;24.23;;
18576;SDS011;9418;52.694;13.294;2023-04-15T03:32:55;32.13;;;24.50;;
18576;SDS011;9418;52.694;13.294;2023-04-15T03:35:22;29.73;;;24.23;;
18576;SDS011;9418;52.694;13.294;2023-04-15T03:37:48;27.53;;;24.00;;
18576;SDS011;9418;52.694;13.294;2023-04-15T03:40:15;29.33;;;24.20;;
18576;SDS011;9418;52.694;13.294;2023-04-15T03:42:43;26.87;;;23.97;;
18576;SDS011;9418;52.694;13.294;2023-04-15T03:45:10;29.40;;;24.20;;
18576;SDS011;9418;52.694;13.294;2023-04-15T03:47:36;33.90;;;24.63;;
18576;SDS011;9418;52.694;13.294;2023-04-15T03:50:03;26.83;;;23.57;;
18576;SDS011;9418;52.694;13.294;2023-04-15T03:52:31;30.33;;;23.47;;
18576;SDS011;9418;52.694;13.294;2023-04-15T03:54:57;29.67;;;24.30;;
18576;SDS011;9418;52.694;13.294;2023-04-15T03:57:24;32.67;;;25.60;;
18576;SDS011;9418;52.694;13.294;2023-04-15T03:59:52;32.30;;;25.30;;
18576;SDS011;9418;52.694;13.294;2023-04-15T04:02:19;31.83;;;24.47;;
18576;SDS011;9418;52.694;13.294;2023-04-15T04:04:47;31.10;;;25.63;;
18576;SDS011;9418;52.694;13.294;2023-04-15T04:07:14;35.10;;;25.03;;
18576;SDS011;9418;52.694;13.294;2023-04-15T04:09:41;32.83;;;25.77;;
18576;SDS011;9418;52.694;13.294;2023-04-15T04:12:07;25.70;;;22.57;;
18576;SDS011;9418;52.694;13.294;2023-04-15T04:14:35;28.57;;;23.10;;
18576;SDS011;9418;52.694;13.294;2023-04-15T04:17:03;29.40;;;24.43;;
18576;SDS011;9418;52.694;13.294;2023-04-15T04:19:29;34.30;;;25.43;;
18576;SDS011;9418;52.694;13.294;2023-04-15T04:21:56;47.50;;;24.37;;
18576;SDS011;9418;52.694;13.294;2023-04-15T04:24:22;26.53;;;22.70;;
18576;SDS011;9418;52.694;13.294;2023-04-15T04:26:49;27.93;;;23.60;;
18576;SDS011;9418;52.694;13.294;2023-04-15T04:29:16;28.03;;;23.23;;
18576;SDS011;9418;52.694;13.294;2023-04-15T04:31:42;31.47;;;22.77;;
18576;SDS011;9418;52.694;13.294;2023-04-15T04:34:11;29.97;;;23.80;;
18576;SDS011;9418;52.694;13.294;2023-04-15T04:36:37;27.37;;;22.93;;
18576;SDS011;9418;52.694;13.294;2023-04-15T04:39:04;23.77;;;20.87;;
18576;SDS011;9418;52.694;13.294;2023-04-15T04:41:31;26.27;;;22.20;;
18576;SDS011;9418;52.694;13.294;2023-04-15T04:43:57;24.83;;;21.57;;
18576;SDS011;9418;52.694;13.294;2023-04-15T04:46:24;29.50;;;21.60;;
18576;SDS011;9418;52.694;13.294;2023-04-15T04:48:51;27.33;;;21.90;;
18576;SDS011;9418;52.694;13.294;2023-04-15T04:51:19;25.27;;;20.20;;
18576;SDS011;9418;52.694;13.294;2023-04-15T04:53:45;30.40;;;20.60;;
18576;SDS011;9418;52.694;13.294;2023-04-15T04:56:12;25.93;;;21.73;;
18576;SDS011;9418;52.694;13.294;2023-04-15T04:58:39;28.40;;;21.50;;
18576;SDS011;9418;52.694;13.294;2023-04-15T05:01:06;24.97;;;20.53;;
18576;SDS011;9418;52.694;13.294;2023-04-15T05:03:33;27.70;;;21.83;;
18576;SDS011;9418;52.694;13.294;2023-04-15T05:06:00;28.93;;;19.00;;
18576;SDS011;9418;52.694;13.294;2023-04-15T05:08:31;23.57;;;20.33;;
18576;SDS011;9418;52.694;13.294;2023-04-15T05:10:58;24.80;;;20.87;;
18576;SDS011;9418;52.694;13.294;2023-04-15T05:13:24;22.17;;;19.77;;
18576;SDS011;9418;52.694;13.294;2023-04-15T05:15:51;22.23;;;19.57;;
18576;SDS011;9418;52.694;13.294;2023-04-15T05:18:18;23.13;;;20.37;;
18576;SDS011;9418;52.694;13.294;2023-04-15T05:20:44;21.80;;;19.20;;
18576;SDS011;9418;52.694;13.294;2023-04-15T05:23:11;20.87;;;18.67;;
18576;SDS011;9418;52.694;13.294;2023-04-15T05:25:39;21.90;;;18.07;;
18576;SDS011;9418;52.694;13.294;2023-04-15T05:28:06;21.30;;;18.40;;
18576;SDS011;9418;52.694;13.294;2023-04-15T05:30:32;19.80;;;17.57;;
18576;SDS011;9418;52.694;13.294;2023-04-15T05:32:59;21.80;;;18.40;;
18576;SDS011;9418;52.694;13.294;2023-04-15T05:35:26;18.30;;;15.77;;
18576;SDS011;9418;52.694;13.294;2023-04-15T05:37:52;18.00;;;16.10;;
18576;SDS011;9418;52.694;13.294;2023-04-15T05:40:19;23.23;;;15.97;;
18576;SDS011;9418;52.694;13.294;2023-04-15T05:42:47;19.10;;;15.10;;
18576;SDS011;9418;52.694;13.294;2023-04-15T05:45:14;17.53;;;15.33;;
18576;SDS011;9418;52.694;13.294;2023-04-15T05:47:40;18.07;;;15.30;;
18576;SDS011;9418;52.694;13.294;2023-04-15T05:50:07;16.10;;;14.40;;
18576;SDS011;9418;52.694;13.294;2023-04-15T05:52:35;23.53;;;14.80;;
18576;SDS011;9418;52.694;13.294;2023-04-15T05:55:01;17.70;;;15.07;;
18576;SDS011;9418;52.694;13.294;2023-04-15T05:57:28;15.20;;;13.60;;
18576;SDS011;9418;52.694;13.294;2023-04-15T05:59:56;17.70;;;13.40;;
18576;SDS011;9418;52.694;13.294;2023-04-15T06:02:23;15.50;;;13.20;;
18576;SDS011;9418;52.694;13.294;2023-04-15T06:04:50;18.20;;;13.60;;
18576;SDS011;9418;52.694;13.294;2023-04-15T06:07:17;14.53;;;13.00;;
18576;SDS011;9418;52.694;13.294;2023-04-15T06:09:44;32.60;;;13.20;;
18576;SDS011;9418;52.694;13.294;2023-04-15T06:12:11;16.00;;;13.53;;
18576;SDS011;9418;52.694;13.294;2023-04-15T06:14:37;13.23;;;12.03;;
18576;SDS011;9418;52.694;13.294;2023-04-15T06:17:05;13.17;;;11.87;;
18576;SDS011;9418;52.694;13.294;2023-04-15T06:19:32;14.70;;;12.53;;
18576;SDS011;9418;52.694;13.294;2023-04-15T06:22:00;12.97;;;11.67;;
18576;SDS011;9418;52.694;13.294;2023-04-15T06:24:27;14.00;;;11.93;;
18576;SDS011;9418;52.694;13.294;2023-04-15T06:26:53;15.90;;;12.17;;
18576;SDS011;9418;52.694;13.294;2023-04-15T06:29:21;12.57;;;11.27;;
18576;SDS011;9418;52.694;13.294;2023-04-15T06:31:48;13.37;;;11.97;;
18576;SDS011;9418;52.694;13.294;2023-04-15T06:34:16;13.53;;;10.90;;
18576;SDS011;9418;52.694;13.294;2023-04-15T06:36:43;13.33;;;11.93;;
18576;SDS011;9418;52.694;13.294;2023-04-15T06:39:09;13.13;;;11.27;;
18576;SDS011;9418;52.694;13.294;2023-04-15T06:41:36;16.13;;;11.80;;
18576;SDS011;9418;52.694;13.294;2023-04-15T06:44:03;13.30;;;11.90;;
18576;SDS011;9418;52.694;13.294;2023-04-15T06:46:30;12.00;;;10.17;;
18576;SDS011;9418;52.694;13.294;2023-04-15T06:48:56;12.73;;;11.40;;
18576;SDS011;9418;52.694;13.294;2023-04-15T06:51:24;14.77;;;11.27;;
18576;SDS011;9418;52.694;13.294;2023-04-15T06:53:51;13.03;;;11.17;;
18576;SDS011;9418;52.694;13.294;2023-04-15T06:56:18;11.40;;;10.07;;
18576;SDS011;9418;52.694;13.294;2023-04-15T06:58:44;12.13;;;10.40;;
18576;SDS011;9418;52.694;13.294;2023-04-15T07:01:11;12.10;;;10.90;;
18576;SDS011;9418;52.694;13.294;2023-04-15T07:03:38;14.87;;;11.37;;
18576;SDS011;9418;52.694;13.294;2023-04-15T07:06:05;11.80;;;10.67;;
18576;SDS011;9418;52.694;13.294;2023-04-15T07:08:34;11.73;;;10.47;;
18576;SDS011;9418;52.694;13.294;2023-04-15T07:11:01;12.03;;;10.83;;
18576;SDS011;9418;52.694;13.294;2023-04-15T07:13:29;11.40;;;10.27;;
18576;SDS011;9418;52.694;13.294;2023-04-15T07:15:56;12.57;;;10.37;;
18576;SDS011;9418;52.694;13.294;2023-04-15T07:18:23;11.73;;;10.63;;
18576;SDS011;9418;52.694;13.294;2023-04-15T07:20:50;12.27;;;11.07;;
18576;SDS011;9418;52.694;13.294;2023-04-15T07:23:16;16.30;;;11.47;;
18576;SDS011;9418;52.694;13.294;2023-04-15T07:25:44;11.27;;;10.07;;
18576;SDS011;9418;52.694;13.294;2023-04-15T07:28:11;11.83;;;10.70;;
18576;SDS011;9418;52.694;13.294;2023-04-15T07:30:37;12.10;;;10.30;;
18576;SDS011;9418;52.694;13.294;2023-04-15T07:33:04;12.43;;;10.27;;
18576;SDS011;9418;52.694;13.294;2023-04-15T07:35:31;21.80;;;11.20;;
18576;SDS011;9418;52.694;13.294;2023-04-15T07:37:57;16.80;;;10.90;;
18576;SDS011;9418;52.694;13.294;2023-04-15T07:40:24;11.60;;;10.40;;
18576;SDS011;9418;52.694;13.294;2023-04-15T07:42:52;12.40;;;11.07;;
18576;SDS011;9418;52.694;13.294;2023-04-15T07:45:19;12.77;;;11.33;;
18576;SDS011;9418;52.694;13.294;2023-04-15T07:47:45;12.53;;;11.30;;
18576;SDS011;9418;52.694;13.294;2023-04-15T07:50:12;15.03;;;10.50;;
18576;SDS011;9418;52.694;13.294;2023-04-15T07:52:40;12.40;;;11.20;;
18576;SDS011;9418;52.694;13.294;2023-04-15T07:55:08;12.50;;;11.20;;
18576;SDS011;9418;52.694;13.294;2023-04-15T07:57:35;11.50;;;10.40;;
18576;SDS011;9418;52.694;13.294;2023-04-15T08:00:04;11.07;;;9.87;;
18576;SDS011;9418;52.694;13.294;2023-04-15T08:02:31;13.43;;;10.90;;
18576;SDS011;9418;52.694;13.294;2023-04-15T08:04:58;11.70;;;10.70;;
18576;SDS011;9418;52.694;13.294;2023-04-15T08:07:26;12.33;;;10.83;;
18576;SDS011;9418;52.694;13.294;2023-04-15T08:09:53;12.13;;;10.90;;
18576;SDS011;9418;52.694;13.294;2023-04-15T08:12:20;20.50;;;10.70;;
18576;SDS011;9418;52.694;13.294;2023-04-15T08:14:46;16.53;;;10.03;;
18576;SDS011;9418;52.694;13.294;2023-04-15T08:17:14;11.47;;;10.30;;
18576;SDS011;9418;52.694;13.294;2023-04-15T08:19:41;11.63;;;10.20;;
18576;SDS011;9418;52.694;13.294;2023-04-15T08:22:07;10.63;;;9.67;;
18576;SDS011;9418;52.694;13.294;2023-04-15T08:24:35;12.77;;;11.53;;
18576;SDS011;9418;52.694;13.294;2023-04-15T08:27:02;12.60;;;11.30;;
18576;SDS011;9418;52.694;13.294;2023-04-15T08:29:29;12.17;;;11.00;;
18576;SDS011;9418;52.694;13.294;2023-04-15T08:31:56;13.87;;;12.27;;
18576;SDS011;9418;52.694;13.294;2023-04-15T08:34:26;15.43;;;11.37;;
18576;SDS011;9418;52.694;13.294;2023-04-15T08:36:52;15.40;;;11.57;;
18576;SDS011;9418;52.694;13.294;2023-04-15T08:39:19;18.37;;;11.10;;
18576;SDS011;9418;52.694;13.294;2023-04-15T08:41:47;13.20;;;11.90;;
18576;SDS011;9418;52.694;13.294;2023-04-15T08:44:17;13.53;;;11.50;;
18576;SDS011;9418;52.694;13.294;2023-04-15T08:46:44;12.10;;;10.93;;
18576;SDS011;9418;52.694;13.294;2023-04-15T08:49:11;13.20;;;11.43;;
18576;SDS011;9418;52.694;13.294;2023-04-15T08:51:39;13.60;;;11.93;;
18576;SDS011;9418;52.694;13.294;2023-04-15T08:54:06;18.07;;;12.27;;
18576;SDS011;9418;52.694;13.294;2023-04-15T08:56:34;17.23;;;11.80;;
18576;SDS011;9418;52.694;13.294;2023-04-15T08:59:01;12.67;;;11.40;;
18576;SDS011;9418;52.694;13.294;2023-04-15T09:01:29;11.53;;;10.33;;
18576;SDS011;9418;52.694;13.294;2023-04-15T09:03:57;14.03;;;11.27;;
18576;SDS011;9418;52.694;13.294;2023-04-15T09:06:24;12.53;;;11.30;;
18576;SDS011;9418;52.694;13.294;2023-04-15T09:08:53;15.00;;;11.07;;
18576;SDS011;9418;52.694;13.294;2023-04-15T09:11:20;12.27;;;10.83;;
18576;SDS011;9418;52.694;13.294;2023-04-15T09:13:47;12.73;;;10.00;;
18576;SDS011;9418;52.694;13.294;2023-04-15T09:16:14;12.30;;;11.20;;
18576;SDS011;9418;52.694;13.294;2023-04-15T09:18:41;13.23;;;11.27;;
18576;SDS011;9418;52.694;13.294;2023-04-15T09:21:08;12.90;;;11.23;;
18576;SDS011;9418;52.694;13.294;2023-04-15T09:23:37;12.50;;;11.27;;
18576;SDS011;9418;52.694;13.294;2023-04-15T09:26:05;15.53;;;10.50;;
18576;SDS011;9418;52.694;13.294;2023-04-15T09:28:32;15.73;;;11.20;;
18576;SDS011;9418;52.694;13.294;2023-04-15T09:31:05;11.57;;;10.30;;
18576;SDS011;9418;52.694;13.294;2023-04-15T09:33:32;12.30;;;10.47;;
18576;SDS011;9418;52.694;13.294;2023-04-15T09:36:00;13.00;;;11.70;;
18576;SDS011;9418;52.694;13.294;2023-04-15T09:38:27;11.13;;;9.93;;
18576;SDS011;9418;52.694;13.294;2023-04-15T09:40:54;12.40;;;11.10;;
18576;SDS011;9418;52.694;13.294;2023-04-15T09:43:25;12.40;;;10.57;;
18576;SDS011;9418;52.694;13.294;2023-04-15T09:46:03;11.50;;;10.40;;
18576;SDS011;9418;52.694;13.294;2023-04-15T09:48:29;20.37;;;11.20;;
18576;SDS011;9418;52.694;13.294;2023-04-15T09:50:56;12.43;;;11.33;;
18576;SDS011;9418;52.694;13.294;2023-04-15T09:53:24;11.93;;;10.23;;
18576;SDS011;9418;52.694;13.294;2023-04-15T09:55:52;13.37;;;10.50;;
18576;SDS011;9418;52.694;13.294;2023-04-15T09:58:20;11.20;;;10.10;;
18576;SDS011;9418;52.694;13.294;2023-04-15T10:00:50;13.83;;;11.40;;
18576;SDS011;9418;52.694;13.294;2023-04-15T10:03:18;11.93;;;10.93;;
18576;SDS011;9418;52.694;13.294;2023-04-15T10:05:47;14.57;;;10.77;;
18576;SDS011;9418;52.694;13.294;2023-04-15T10:08:15;11.60;;;10.43;;
18576;SDS011;9418;52.694;13.294;2023-04-15T10:10:44;12.90;;;9.87;;
18576;SDS011;9418;52.694;13.294;2023-04-15T10:13:11;12.20;;;10.93;;
18576;SDS011;9418;52.694;13.294;2023-04-15T10:15:41;11.10;;;10.10;;
18576;SDS011;9418;52.694;13.294;2023-04-15T10:18:10;13.27;;;10.90;;
18576;SDS011;9418;52.694;13.294;2023-04-15T10:20:40;11.40;;;10.20;;
18576;SDS011;9418;52.694;13.294;2023-04-15T10:23:07;11.90;;;10.77;;
18576;SDS011;9418;52.694;13.294;2023-04-15T10:25:35;11.47;;;10.20;;
18576;SDS011;9418;52.694;13.294;2023-04-15T10:28:02;12.00;;;10.23;;
18576;SDS011;9418;52.694;13.294;2023-04-15T10:30:29;10.83;;;9.83;;
18576;SDS011;9418;52.694;13.294;2023-04-15T10:32:59;11.93;;;10.07;;
18576;SDS011;9418;52.694;13.294;2023-04-15T10:35:27;13.70;;;12.30;;
18576;SDS011;9418;52.694;13.294;2023-04-15T10:37:54;14.20;;;10.90;;
18576;SDS011;9418;52.694;13.294;2023-04-15T10:40:25;11.70;;;10.70;;
18576;SDS011;9418;52.694;13.294;2023-04-15T10:42:53;13.23;;;11.00;;
18576;SDS011;9418;52.694;13.294;2023-04-15T10:45:20;14.53;;;12.07;;
18576;SDS011;9418;52.694;13.294;2023-04-15T10:47:51;13.20;;;10.80;;
18576;SDS011;9418;52.694;13.294;2023-04-15T10:50:21;15.90;;;11.40;;
18576;SDS011;9418;52.694;13.294;2023-04-15T10:52:50;15.07;;;11.10;;
18576;SDS011;9418;52.694;13.294;2023-04-15T10:55:18;16.60;;;10.80;;
18576;SDS011;9418;52.694;13.294;2023-04-15T10:57:46;11.63;;;10.43;;
18576;SDS011;9418;52.694;13.294;2023-04-15T11:00:18;12.57;;;11.27;;
18576;SDS011;9418;52.694;13.294;2023-04-15T11:02:46;13.57;;;11.70;;
18576;SDS011;9418;52.694;13.294;2023-04-15T11:05:17;10.50;;;9.40;;
18576;SDS011;9418;52.694;13.294;2023-04-15T11:07:50;11.57;;;10.40;;
18576;SDS011;9418;52.694;13.294;2023-04-15T11:13:19;12.07;;;10.83;;
18576;SDS011;9418;52.694;13.294;2023-04-15T11:15:47;11.97;;;10.97;;
18576;SDS011;9418;52.694;13.294;2023-04-15T11:18:17;11.70;;;10.47;;
18576;SDS011;9418;52.694;13.294;2023-04-15T11:20:45;12.23;;;10.63;;
18576;SDS011;9418;52.694;13.294;2023-04-15T11:23:14;14.10;;;12.63;;
18576;SDS011;9418;52.694;13.294;2023-04-15T11:25:43;12.40;;;10.97;;
18576;SDS011;9418;52.694;13.294;2023-04-15T11:28:11;15.83;;;11.90;;
18576;SDS011;9418;52.694;13.294;2023-04-15T11:30:38;14.80;;;10.37;;
18576;SDS011;9418;52.694;13.294;2023-04-15T11:33:07;12.03;;;10.67;;
18576;SDS011;9418;52.694;13.294;2023-04-15T11:35:36;13.60;;;10.83;;
18576;SDS011;9418;52.694;13.294;2023-04-15T11:38:08;12.23;;;11.07;;
18576;SDS011;9418;52.694;13.294;2023-04-15T11:40:37;13.60;;;10.63;;
18576;SDS011;9418;52.694;13.294;2023-04-15T11:43:05;15.20;;;12.50;;
18576;SDS011;9418;52.694;13.294;2023-04-15T11:45:33;11.97;;;10.87;;
18576;SDS011;9418;52.694;13.294;2023-04-15T11:48:04;12.77;;;10.83;;
18576;SDS011;9418;52.694;13.294;2023-04-15T11:50:32;13.53;;;11.00;;
18576;SDS011;9418;52.694;13.294;2023-04-15T11:52:59;11.47;;;10.30;;
18576;SDS011;9418;52.694;13.294;2023-04-15T11:55:27;12.50;;;11.20;;
18576;SDS011;9418;52.694;13.294;2023-04-15T11:58:06;13.10;;;11.13;;
18576;SDS011;9418;52.694;13.294;2023-04-15T12:00:34;15.20;;;11.97;;
18576;SDS011;9418;52.694;13.294;2023-04-15T12:03:10;11.83;;;10.73;;
18576;SDS011;9418;52.694;13.294;2023-04-15T12:11:33;12.50;;;11.17;;
18576;SDS011;9418;52.694;13.294;2023-04-15T12:14:04;12.00;;;10.90;;
18576;SDS011;9418;52.694;13.294;2023-04-15T12:16:33;12.40;;;10.70;;
18576;SDS011;9418;52.694;13.294;2023-04-15T12:19:03;19.40;;;10.97;;
18576;SDS011;9418;52.694;13.294;2023-04-15T12:21:32;12.50;;;10.90;;
18576;SDS011;9418;52.694;13.294;2023-04-15T12:24:00;12.50;;;10.63;;
18576;SDS011;9418;52.694;13.294;2023-04-15T12:26:30;12.73;;;11.20;;
18576;SDS011;9418;52.694;13.294;2023-04-15T12:28:59;14.03;;;10.77;;
18576;SDS011;9418;52.694;13.294;2023-04-15T12:31:28;13.13;;;11.17;;
18576;SDS011;9418;52.694;13.294;2023-04-15T12:33:55;12.43;;;10.50;;
18576;SDS011;9418;52.694;13.294;2023-04-15T12:36:21;14.00;;;10.80;;
18576;SDS011;9418;52.694;13.294;2023-04-15T12:38:48;17.23;;;11.60;;
18576;SDS011;9418;52.694;13.294;2023-04-15T12:41:15;12.53;;;11.07;;
18576;SDS011;9418;52.694;13.294;2023-04-15T12:43:43;17.40;;;13.83;;
18576;SDS011;9418;52.694;13.294;2023-04-15T12:46:10;13.83;;;12.37;;
18576;SDS011;9418;52.694;13.294;2023-04-15T12:48:38;17.10;;;11.90;;
18576;SDS011;9418;52.694;13.294;2023-04-15T12:51:05;16.60;;;11.80;;
18576;SDS011;9418;52.694;13.294;2023-04-15T12:53:32;16.47;;;12.07;;
18576;SDS011;9418;52.694;13.294;2023-04-15T12:55:58;16.40;;;11.03;;
18576;SDS011;9418;52.694;13.294;2023-04-15T12:58:25;14.30;;;12.13;;
18576;SDS011;9418;52.694;13.294;2023-04-15T13:00:52;19.70;;;10.50;;
18576;SDS011;9418;52.694;13.294;2023-04-15T13:03:19;12.40;;;11.30;;
18576;SDS011;9418;52.694;13.294;2023-04-15T13:05:47;14.07;;;10.70;;
18576;SDS011;9418;52.694;13.294;2023-04-15T13:08:13;10.83;;;9.33;;
18576;SDS011;9418;52.694;13.294;2023-04-15T13:10:40;11.70;;;10.50;;
18576;SDS011;9418;52.694;13.294;2023-04-15T13:13:08;12.00;;;10.20;;
18576;SDS011;9418;52.694;13.294;2023-04-15T13:15:34;12.87;;;10.80;;
18576;SDS011;9418;52.694;13.294;2023-04-15T13:18:02;10.87;;;9.87;;
18576;SDS011;9418;52.694;13.294;2023-04-15T13:20:30;11.73;;;10.43;;
18576;SDS011;9418;52.694;13.294;2023-04-15T13:22:57;10.47;;;9.57;;
18576;SDS011;9418;52.694;13.294;2023-04-15T13:25:24;11.73;;;10.60;;
18576;SDS011;9418;52.694;13.294;2023-04-15T13:27:51;14.20;;;12.70;;
18576;SDS011;9418;52.694;13.294;2023-04-15T13:30:18;12.30;;;11.10;;
18576;SDS011;9418;52.694;13.294;2023-04-15T13:32:45;14.90;;;11.53;;
18576;SDS011;9418;52.694;13.294;2023-04-15T13:35:12;12.20;;;10.03;;
18576;SDS011;9418;52.694;13.294;2023-04-15T13:37:38;12.20;;;10.37;;
18576;SDS011;9418;52.694;13.294;2023-04-15T13:40:07;12.10;;;10.87;;
18576;SDS011;9418;52.694;13.294;2023-04-15T13:42:34;12.27;;;10.20;;
18576;SDS011;9418;52.694;13.294;2023-04-15T13:45:01;11.53;;;10.53;;
18576;SDS011;9418;52.694;13.294;2023-04-15T13:47:28;11.63;;;10.50;;
18576;SDS011;9418;52.694;13.294;2023-04-15T13:49:55;12.67;;;11.57;;
18576;SDS011;9418;52.694;13.294;2023-04-15T13:52:21;17.93;;;16.03;;
18576;SDS011;9418;52.694;13.294;2023-04-15T13:54:48;11.80;;;10.80;;
18576;SDS011;9418;52.694;13.294;2023-04-15T13:57:17;10.00;;;9.10;;
18576;SDS011;9418;52.694;13.294;2023-04-15T13:59:43;10.40;;;9.50;;
18576;SDS011;9418;52.694;13.294;2023-04-15T14:02:10;16.40;;;10.00;;
18576;SDS011;9418;52.694;13.294;2023-04-15T14:04:37;10.20;;;9.40;;
18576;SDS011;9418;52.694;13.294;2023-04-15T14:07:03;11.63;;;10.43;;
18576;SDS011;9418;52.694;13.294;2023-04-15T14:09:30;19.73;;;10.20;;
18576;SDS011;9418;52.694;13.294;2023-04-15T14:11:57;12.23;;;11.13;;
18576;SDS011;9418;52.694;13.294;2023-04-15T14:14:25;12.47;;;10.53;;
18576;SDS011;9418;52.694;13.294;2023-04-15T14:16:51;11.23;;;10.13;;
18576;SDS011;9418;52.694;13.294;2023-04-15T14:19:18;11.37;;;10.47;;
18576;SDS011;9418;52.694;13.294;2023-04-15T14:21:45;15.40;;;10.27;;
18576;SDS011;9418;52.694;13.294;2023-04-15T14:24:11;10.93;;;9.90;;
18576;SDS011;9418;52.694;13.294;2023-04-15T14:26:38;10.63;;;9.73;;
18576;SDS011;9418;52.694;13.294;2023-04-15T14:29:04;11.93;;;10.77;;
18576;SDS011;9418;52.694;13.294;2023-04-15T14:31:33;9.80;;;8.90;;
18576;SDS011;9418;52.694;13.294;2023-04-15T14:33:59;11.50;;;8.90;;
18576;SDS011;9418;52.694;13.294;2023-04-15T14:36:26;11.73;;;10.53;;